createdAt,value
2022-10-02T00:00:08.232Z,11.90
2022-10-02T00:02:47.913Z,11.63
2022-10-02T00:05:29.459Z,13.57
2022-10-02T00:08:29.653Z,12.60
2022-10-02T00:11:07.804Z,12.88
2022-10-02T00:16:28.962Z,13.23
2022-10-02T00:18:57.894Z,13.63
2022-10-02T00:22:04.228Z,13.73
2022-10-02T00:25:07.454Z,13.57
2022-10-02T00:27:54.427Z,12.63
2022-10-02T00:30:23.780Z,13.88
2022-10-02T00:33:05.951Z,14.52
2022-10-02T00:35:46.508Z,15.02
2022-10-02T00:38:23.372Z,14.52
2022-10-02T00:41:22.249Z,14.95
2022-10-02T00:44:05.887Z,14.40
2022-10-02T00:47:06.073Z,14.55
2022-10-02T00:49:39.362Z,13.90
2022-10-02T00:52:13.403Z,15.13
2022-10-02T00:55:10.476Z,14.32
2022-10-02T00:58:03.214Z,14.50
2022-10-02T01:00:31.922Z,14.75
2022-10-02T01:03:21.373Z,14.57
2022-10-02T01:05:49.635Z,17.70
2022-10-02T01:08:17.814Z,14.60
2022-10-02T01:10:46.333Z,15.25
2022-10-02T01:13:14.158Z,15.98
2022-10-02T01:15:47.112Z,15.82
2022-10-02T01:18:17.371Z,15.30
2022-10-02T01:20:52.036Z,16.25
2022-10-02T01:23:42.312Z,16.38
2022-10-02T01:27:06.073Z,15.50
2022-10-02T01:29:56.685Z,16.25
2022-10-02T01:32:26.327Z,15.82
2022-10-02T01:34:54.347Z,15.32
2022-10-02T01:37:24.493Z,16.52
2022-10-02T01:39:52.550Z,15.45
2022-10-02T01:42:21.177Z,16.27
2022-10-02T01:44:49.260Z,15.30
2022-10-02T01:47:47.696Z,16.20
2022-10-02T01:50:32.974Z,16.35
2022-10-02T01:53:05.966Z,15.68
2022-10-02T01:55:49.160Z,16.35
2022-10-02T01:58:20.093Z,15.68
2022-10-02T02:01:02.465Z,15.63
2022-10-02T02:04:01.916Z,16.63
2022-10-02T02:07:01.735Z,16.70
2022-10-02T02:09:44.153Z,16.95
2022-10-02T02:12:22.175Z,17.70
2022-10-02T02:14:53.470Z,18.73
2022-10-02T02:17:27.233Z,17.40
2022-10-02T02:20:10.297Z,18.30
2022-10-02T02:22:41.214Z,19.27
2022-10-02T02:25:17.173Z,20.60
2022-10-02T02:27:49.029Z,20.77
2022-10-02T02:30:17.227Z,20.20
2022-10-02T02:33:00.919Z,22.63
2022-10-02T02:35:38.211Z,22.15
2022-10-02T02:38:09.567Z,23.52
2022-10-02T02:40:39.995Z,21.60
2022-10-02T02:43:19.793Z,23.05
2022-10-02T02:45:58.071Z,24.90
2022-10-02T02:48:31.557Z,24.73
2022-10-02T02:51:10.941Z,23.42
2022-10-02T02:53:42.287Z,24.65
2022-10-02T02:56:12.631Z,25.60
2022-10-02T02:58:42.109Z,24.92
2022-10-02T03:01:10.111Z,27.77
2022-10-02T03:03:38.316Z,24.85
2022-10-02T03:06:17.079Z,25.65
2022-10-02T03:08:44.970Z,26.25
2022-10-02T03:11:24.851Z,25.13
2022-10-02T03:14:18.096Z,26.80
2022-10-02T03:17:07.711Z,27.08
2022-10-02T03:20:06.498Z,26.38
2022-10-02T03:22:55.558Z,26.92
2022-10-02T03:25:31.978Z,26.88
2022-10-02T03:28:54.395Z,28.35
2022-10-02T03:31:20.973Z,28.00
2022-10-02T03:33:50.393Z,27.77
2022-10-02T03:36:18.305Z,26.52
2022-10-02T03:38:56.893Z,25.85
2022-10-02T03:41:34.472Z,27.50
2022-10-02T03:44:02.554Z,25.48
2022-10-02T03:46:31.199Z,26.13
2022-10-02T03:49:00.536Z,24.80
2022-10-02T03:51:28.438Z,24.45
2022-10-02T03:53:56.724Z,24.08
2022-10-02T03:56:34.399Z,22.30
2022-10-02T03:59:03.362Z,21.30
2022-10-02T04:01:36.041Z,22.08
2022-10-02T04:04:15.214Z,20.88
2022-10-02T04:06:50.256Z,19.35
2022-10-02T04:09:37.894Z,18.70
2022-10-02T04:12:19.380Z,19.38
2022-10-02T04:14:55.241Z,18.35
2022-10-02T04:17:24.910Z,17.17
2022-10-02T04:20:05.789Z,16.70
2022-10-02T04:22:51.184Z,16.52
2022-10-02T04:25:21.146Z,15.38
2022-10-02T04:27:59.896Z,16.63
2022-10-02T04:30:29.273Z,15.80
2022-10-02T04:33:14.363Z,15.13
2022-10-02T04:35:57.370Z,14.52
2022-10-02T04:38:49.207Z,14.20
2022-10-02T04:41:17.341Z,13.00
2022-10-02T04:44:03.931Z,12.05
2022-10-02T04:49:36.749Z,10.93
2022-10-02T04:52:35.530Z,11.63
2022-10-02T04:55:09.135Z,9.70
2022-10-02T04:57:58.691Z,9.30
2022-10-02T05:00:26.998Z,9.48
2022-10-02T05:03:17.567Z,8.95
2022-10-02T05:06:11.937Z,8.00
2022-10-02T05:08:59.725Z,8.70
2022-10-02T05:11:49.292Z,7.93
2022-10-02T05:14:45.224Z,7.20
2022-10-02T05:17:31.906Z,7.53
2022-10-02T05:20:21.903Z,7.20
2022-10-02T05:23:24.221Z,7.05
2022-10-02T05:26:23.496Z,7.03
2022-10-02T05:29:24.173Z,8.50
2022-10-02T05:32:24.204Z,8.02
2022-10-02T05:35:05.620Z,8.25
2022-10-02T05:37:52.701Z,7.43
2022-10-02T05:40:39.759Z,6.95
2022-10-02T05:43:15.817Z,6.05
2022-10-02T05:45:58.909Z,5.20
2022-10-02T05:48:28.171Z,5.28
2022-10-02T05:51:00.548Z,4.93
2022-10-02T05:53:36.620Z,5.25
2022-10-02T05:58:51.516Z,4.50
2022-10-02T06:01:23.333Z,5.00
2022-10-02T06:04:13.700Z,4.95
2022-10-02T06:09:49.154Z,4.57
2022-10-02T06:12:52.741Z,4.22
2022-10-02T06:15:40.396Z,4.20
2022-10-02T06:19:25.787Z,4.40
2022-10-02T06:22:07.508Z,4.40
2022-10-02T06:24:55.918Z,4.20
2022-10-02T06:27:42.244Z,3.88
2022-10-02T06:30:48.883Z,4.97
2022-10-02T06:33:37.442Z,4.43
2022-10-02T06:36:23.351Z,5.80
2022-10-02T06:39:14.038Z,4.57
2022-10-02T06:42:22.574Z,4.28
2022-10-02T06:45:23.924Z,4.03
2022-10-02T06:48:33.298Z,4.60
2022-10-02T06:51:08.540Z,4.07
2022-10-02T06:54:07.015Z,5.22
2022-10-02T06:58:14.701Z,4.45
2022-10-02T07:05:29.942Z,4.25
2022-10-02T07:08:19.688Z,3.92
2022-10-02T07:11:20.475Z,4.38
2022-10-02T07:14:35.527Z,5.13
2022-10-02T07:18:02.358Z,4.88
2022-10-02T07:20:47.117Z,4.55
2022-10-02T07:23:38.405Z,4.63
2022-10-02T07:26:15.809Z,4.43
2022-10-02T07:29:05.757Z,4.38
2022-10-02T07:32:18.941Z,4.90
2022-10-02T07:34:56.331Z,4.55
2022-10-02T07:37:47.938Z,5.10
2022-10-02T07:40:29.310Z,4.78
2022-10-02T07:43:06.975Z,4.63
2022-10-02T07:45:43.514Z,4.93
2022-10-02T07:48:20.997Z,6.00
2022-10-02T07:51:54.744Z,5.95
2022-10-02T07:54:35.538Z,5.82
2022-10-02T07:57:34.619Z,6.13
2022-10-02T08:00:16.320Z,5.72
2022-10-02T08:03:05.342Z,5.53
2022-10-02T08:05:35.805Z,5.85
2022-10-02T08:08:33.975Z,7.10
2022-10-02T08:11:19.697Z,7.13
2022-10-02T08:14:20.629Z,8.00
2022-10-02T08:16:51.078Z,8.57
2022-10-02T08:19:48.083Z,9.45
2022-10-02T08:22:24.410Z,9.40
2022-10-02T08:25:22.159Z,10.23
2022-10-02T08:27:56.063Z,9.82
2022-10-02T08:30:40.812Z,10.40
2022-10-02T08:33:18.719Z,10.95
2022-10-02T08:36:21.859Z,11.57
2022-10-02T08:39:17.043Z,10.77
2022-10-02T08:41:55.020Z,11.25
2022-10-02T08:44:51.609Z,12.32
2022-10-02T08:50:15.086Z,12.93
2022-10-02T08:52:51.784Z,13.15
2022-10-02T08:55:50.889Z,13.07
2022-10-02T08:58:44.594Z,13.02
2022-10-02T09:02:27.920Z,12.43
2022-10-02T09:06:04.168Z,12.27
2022-10-02T09:08:57.667Z,11.20
2022-10-02T09:11:26.420Z,11.75
2022-10-02T09:14:35.588Z,11.38
2022-10-02T09:17:52.076Z,11.02
2022-10-02T09:21:25.151Z,12.65
2022-10-02T09:24:59.392Z,12.23
2022-10-02T09:28:19.965Z,12.23
2022-10-02T09:31:23.366Z,10.43
2022-10-02T09:35:03.036Z,10.88
2022-10-02T09:38:22.467Z,12.18
2022-10-02T09:42:31.216Z,11.98
2022-10-02T09:45:31.057Z,11.48
2022-10-02T09:48:20.712Z,12.20
2022-10-02T09:50:56.538Z,11.57
2022-10-02T09:57:00.302Z,10.80
2022-10-02T09:59:46.117Z,10.63
2022-10-02T10:02:20.413Z,10.85
2022-10-02T10:05:12.157Z,11.05
2022-10-02T10:08:31.016Z,10.30
2022-10-02T10:11:36.014Z,10.82
2022-10-02T10:17:18.480Z,9.98
2022-10-02T10:20:10.285Z,10.57
2022-10-02T10:23:15.610Z,10.35
2022-10-02T10:26:05.557Z,10.27
2022-10-02T10:28:38.898Z,10.27
2022-10-02T10:31:34.738Z,9.77
2022-10-02T10:34:33.788Z,8.60
2022-10-02T10:37:24.860Z,8.52
2022-10-02T10:40:06.422Z,7.38
2022-10-02T10:43:08.850Z,7.90
2022-10-02T10:46:08.490Z,6.32
2022-10-02T10:49:40.874Z,6.80
2022-10-02T10:52:47.677Z,7.13
2022-10-02T10:55:40.373Z,7.70
2022-10-02T11:05:41.739Z,7.13
2022-10-02T11:08:50.089Z,7.45
2022-10-02T11:17:27.223Z,6.47
2022-10-02T11:20:02.210Z,7.05
2022-10-02T11:23:09.003Z,6.43
2022-10-02T11:27:51.382Z,6.07
2022-10-02T11:37:34.827Z,6.38
2022-10-02T11:40:59.279Z,6.88
2022-10-02T11:44:11.724Z,6.60
2022-10-02T11:47:18.175Z,6.85
2022-10-02T11:50:17.046Z,7.63
2022-10-02T11:53:06.991Z,8.23
2022-10-02T11:55:46.264Z,8.05
2022-10-02T11:58:25.398Z,8.82
2022-10-02T12:01:07.113Z,9.48
2022-10-02T12:04:04.286Z,9.73
2022-10-02T12:07:12.869Z,10.70
2022-10-02T12:10:05.559Z,11.30
2022-10-02T12:12:53.541Z,12.32
2022-10-02T12:15:30.749Z,13.40
2022-10-02T12:18:18.251Z,11.85
2022-10-02T12:21:41.321Z,11.90
2022-10-02T12:25:01.623Z,13.23
2022-10-02T12:27:51.052Z,12.85
2022-10-02T12:30:25.812Z,11.40
2022-10-02T12:33:11.400Z,11.13
2022-10-02T12:35:56.784Z,11.63
2022-10-02T12:38:50.039Z,11.85
2022-10-02T12:41:18.039Z,10.13
2022-10-02T12:44:01.922Z,10.93
2022-10-02T12:46:31.069Z,11.27
2022-10-02T12:49:02.397Z,10.48
2022-10-02T12:51:36.750Z,11.27
2022-10-02T12:54:30.092Z,9.68
2022-10-02T12:57:39.119Z,8.45
2022-10-02T13:00:52.523Z,7.70
2022-10-02T13:03:50.118Z,8.57
2022-10-02T13:06:25.103Z,8.43
2022-10-02T13:09:03.190Z,7.50
2022-10-02T13:11:35.380Z,6.60
2022-10-02T13:14:30.614Z,6.82
2022-10-02T13:17:30.856Z,6.55
2022-10-02T13:20:22.088Z,6.93
2022-10-02T13:23:00.356Z,6.85
2022-10-02T13:25:34.558Z,6.25
2022-10-02T13:28:26.180Z,6.30
2022-10-02T13:31:26.451Z,6.35
2022-10-02T13:34:11.027Z,5.80
2022-10-02T13:37:07.387Z,6.05
2022-10-02T13:39:52.281Z,6.05
2022-10-02T13:42:44.036Z,4.10
2022-10-02T13:45:50.111Z,4.22
2022-10-02T13:48:34.336Z,4.32
2022-10-02T13:51:09.285Z,4.60
2022-10-02T13:54:17.105Z,5.10
2022-10-02T13:56:54.309Z,4.45
2022-10-02T13:59:57.389Z,5.03
2022-10-02T14:02:47.131Z,4.85
2022-10-02T14:05:33.958Z,4.60
2022-10-02T14:08:22.594Z,4.32
2022-10-02T14:11:32.095Z,3.75
2022-10-02T14:14:06.840Z,4.50
2022-10-02T14:17:06.636Z,4.22
2022-10-02T14:19:39.196Z,4.63
2022-10-02T14:22:20.914Z,4.22
2022-10-02T14:25:34.210Z,4.75
2022-10-02T14:28:37.200Z,4.97
2022-10-02T14:31:35.508Z,5.28
2022-10-02T14:34:44.827Z,5.30
2022-10-02T14:38:00.090Z,4.78
2022-10-02T14:40:31.787Z,5.50
2022-10-02T14:43:18.678Z,5.40
2022-10-02T14:46:28.175Z,5.68
2022-10-02T14:49:17.004Z,5.22
2022-10-02T14:52:08.583Z,5.78
2022-10-02T14:54:50.923Z,6.93
2022-10-02T14:58:25.612Z,6.53
2022-10-02T15:01:10.843Z,6.78
2022-10-02T15:04:39.788Z,6.53
2022-10-02T15:07:33.035Z,7.22
2022-10-02T15:10:39.748Z,7.47
2022-10-02T15:17:05.711Z,5.18
2022-10-02T15:19:49.118Z,5.82
2022-10-02T15:22:41.492Z,4.50
2022-10-02T15:25:31.348Z,5.22
2022-10-02T15:28:35.296Z,5.28
2022-10-02T15:32:21.398Z,5.07
2022-10-02T15:38:51.601Z,5.07
2022-10-02T15:41:52.281Z,5.43
2022-10-02T15:44:40.661Z,5.80
2022-10-02T15:47:25.250Z,6.22
2022-10-02T15:50:31.647Z,6.55
2022-10-02T15:53:18.514Z,7.38
2022-10-02T15:56:07.289Z,9.30
2022-10-02T15:58:41.293Z,11.13
2022-10-02T16:01:52.840Z,13.23
2022-10-02T16:04:30.162Z,13.07
2022-10-02T16:07:20.900Z,13.88
2022-10-02T16:10:32.395Z,22.27
2022-10-02T16:14:39.474Z,10.10
2022-10-02T16:17:25.258Z,8.38
2022-10-02T16:21:17.941Z,7.05
2022-10-02T16:27:16.843Z,5.55
2022-10-02T16:30:07.916Z,6.22
2022-10-02T16:33:43.572Z,4.70
2022-10-02T16:36:43.401Z,4.47
2022-10-02T16:39:49.169Z,3.95
2022-10-02T16:42:58.006Z,3.63
2022-10-02T16:45:35.034Z,2.72
2022-10-02T16:48:24.468Z,2.70
2022-10-02T16:51:15.590Z,2.30
2022-10-02T16:54:04.578Z,2.05
2022-10-02T16:56:52.507Z,1.70
2022-10-02T17:00:02.391Z,2.00
2022-10-02T17:03:10.648Z,2.08
2022-10-02T17:06:18.693Z,2.22
2022-10-02T17:09:28.182Z,1.92
2022-10-02T17:12:57.966Z,8.45
2022-10-02T17:16:07.671Z,2.30
2022-10-02T17:22:04.273Z,2.60
2022-10-02T17:25:14.949Z,2.40
2022-10-02T17:27:52.440Z,3.17
2022-10-02T17:34:01.095Z,3.35
2022-10-02T17:37:05.081Z,3.28
2022-10-02T17:40:17.761Z,3.70
2022-10-02T17:43:22.974Z,3.22
2022-10-02T17:46:22.158Z,4.03
2022-10-02T17:49:25.658Z,4.15
2022-10-02T17:52:35.612Z,3.78
2022-10-02T17:56:06.167Z,4.22
2022-10-02T17:59:03.717Z,4.85
2022-10-02T18:01:54.093Z,5.00
2022-10-02T18:09:09.562Z,4.25
2022-10-02T18:12:37.364Z,3.90
2022-10-02T18:15:25.861Z,3.10
2022-10-02T18:18:06.521Z,2.60
2022-10-02T18:21:51.014Z,3.22
2022-10-02T18:24:46.045Z,2.28
2022-10-02T18:27:29.894Z,2.80
2022-10-02T18:30:33.962Z,2.08
2022-10-02T18:34:21.419Z,2.65
2022-10-02T18:37:56.701Z,2.60
2022-10-02T18:41:54.861Z,3.83
2022-10-02T18:45:25.868Z,3.75
2022-10-02T18:49:01.861Z,4.03
2022-10-02T18:51:57.325Z,3.70
2022-10-02T18:55:16.955Z,3.15
2022-10-02T18:58:31.831Z,3.55
2022-10-02T19:01:05.137Z,2.85
2022-10-02T19:07:25.933Z,2.78
2022-10-02T19:10:28.277Z,2.70
2022-10-02T19:13:16.432Z,2.25
2022-10-02T19:15:49.464Z,2.40
2022-10-02T19:18:18.464Z,2.83
2022-10-02T19:20:58.906Z,3.08
2022-10-02T19:23:28.456Z,4.25
2022-10-02T19:26:57.237Z,3.53
2022-10-02T19:29:42.110Z,3.60
2022-10-02T19:32:21.341Z,3.10
2022-10-02T19:35:20.268Z,2.92
2022-10-02T19:37:53.325Z,3.00
2022-10-02T19:40:28.981Z,2.70
2022-10-02T19:43:13.412Z,3.20
2022-10-02T19:45:41.948Z,3.05
2022-10-02T19:48:11.913Z,2.67
2022-10-02T19:50:53.429Z,2.40
2022-10-02T19:53:56.233Z,2.30
2022-10-02T19:56:43.055Z,2.20
2022-10-02T19:59:21.311Z,3.42
2022-10-02T20:02:36.216Z,2.10
2022-10-02T20:05:18.670Z,2.55
2022-10-02T20:07:47.301Z,2.00
2022-10-02T20:10:40.289Z,2.17
2022-10-02T20:14:03.885Z,1.88
2022-10-02T20:17:03.646Z,2.03
2022-10-02T20:19:51.003Z,1.70
2022-10-02T20:22:39.063Z,1.80
2022-10-02T20:25:20.606Z,2.00
2022-10-02T20:28:00.402Z,1.83
2022-10-02T20:31:07.984Z,1.95
2022-10-02T20:36:09.403Z,2.30
2022-10-02T20:39:04.602Z,2.45
2022-10-02T20:42:15.448Z,1.95
2022-10-02T20:44:47.489Z,1.73
2022-10-02T20:47:30.165Z,2.20
2022-10-02T20:50:29.239Z,2.05
2022-10-02T20:53:16.267Z,1.95
2022-10-02T20:56:17.884Z,1.90
2022-10-02T20:59:02.253Z,1.92
2022-10-02T21:01:43.283Z,2.00
2022-10-02T21:04:30.233Z,1.70
2022-10-02T21:07:23.123Z,2.40
2022-10-02T21:10:09.885Z,2.03
2022-10-02T21:13:16.634Z,2.60
2022-10-02T21:16:25.419Z,2.22
2022-10-02T21:19:13.504Z,2.35
2022-10-02T21:22:01.717Z,2.17
2022-10-02T21:24:56.498Z,2.45
2022-10-02T21:27:28.185Z,2.63
2022-10-02T21:30:14.866Z,2.42
2022-10-02T21:32:56.117Z,2.85
2022-10-02T21:35:48.814Z,2.80
2022-10-02T21:38:34.876Z,3.00
2022-10-02T21:41:42.473Z,3.03
2022-10-02T21:47:10.557Z,2.45
2022-10-02T21:49:45.435Z,2.58
2022-10-02T21:52:26.820Z,2.90
2022-10-02T21:55:14.843Z,2.42
2022-10-02T22:00:31.543Z,2.47
2022-10-02T22:03:41.244Z,2.50
2022-10-02T22:06:14.738Z,2.72
2022-10-02T22:08:43.760Z,3.40
2022-10-02T22:11:24.293Z,3.50
2022-10-02T22:14:00.645Z,3.55
2022-10-02T22:17:00.852Z,3.97
2022-10-02T22:19:48.864Z,3.42
2022-10-02T22:22:44.745Z,3.17
2022-10-02T22:25:18.861Z,2.90
2022-10-02T22:28:13.728Z,2.45
2022-10-02T22:31:06.010Z,2.75
2022-10-02T22:33:57.278Z,2.45
2022-10-02T22:36:56.277Z,2.30
2022-10-02T22:39:33.391Z,2.60
2022-10-02T22:42:03.299Z,2.20
2022-10-02T22:44:37.551Z,2.42
2022-10-02T22:47:29.144Z,2.38
2022-10-02T22:50:18.888Z,2.47
2022-10-02T22:53:14.150Z,2.30
2022-10-02T22:55:50.688Z,2.30
2022-10-02T22:58:38.712Z,2.10
2022-10-02T23:01:21.762Z,2.47
2022-10-02T23:04:16.749Z,2.58
2022-10-02T23:06:46.101Z,2.15
2022-10-02T23:09:28.142Z,2.40
2022-10-02T23:12:14.231Z,1.90
2022-10-02T23:15:15.359Z,2.35
2022-10-02T23:17:50.651Z,1.85
2022-10-02T23:20:27.972Z,1.60
2022-10-02T23:23:25.083Z,1.80
2022-10-02T23:26:13.029Z,2.10
2022-10-02T23:29:19.356Z,1.77
2022-10-02T23:31:56.427Z,1.60
2022-10-02T23:34:49.363Z,1.70
2022-10-02T23:37:32.558Z,1.52
2022-10-02T23:40:05.773Z,2.10
2022-10-02T23:42:38.486Z,1.60
2022-10-02T23:45:29.926Z,1.70
2022-10-02T23:48:02.145Z,1.42
2022-10-02T23:50:40.759Z,1.55
2022-10-02T23:53:32.248Z,1.10
2022-10-02T23:56:13.068Z,1.30
2022-10-02T23:59:12.978Z,1.38
